Tropical Cyclones
[Index]
Main Index Home Page Stock Weather Photos Extreme Storms Discussion Storm News and Storm Chasing Reports Tropical Cyclones / Hurricanes / Typhoons Weather Data and Links Wild Fires / Bushfires Weather Observation Techniques Weather Picture Catalogue Tornado Pictures and Reports Stock Video Footage and DVDs for sale
Season 2015-2016 Tropical Cyclone EMERAUDE Track Map
Season 2015-2016 Summaries (Operational Data): [AU] [SIO] [SPAC] [SH]
<<- Previous TC | 2015-2016 Season | Next TC ->>

click for intensity scale information  Lat/long Grid: Show Hide

 Date Labels: Show Hide

Operational Tropical Cyclone Data : JTWC Advisories

Name: EMERAUDE
Number: 1615

14 Mar 2016 00:00 UTC to 24 Mar 2016 00:00 UTC

    date/time    lat    long     hPa   cat  kts
2016-03-14 00   10.7    87.9    1010         15          
2016-03-14 06   10.9    87.7    1010         15          
2016-03-14 12   11.1    87.4    1010         15          
2016-03-14 18   11.2    87.1    1007         20          
2016-03-15 00   11.2    86.8    1004         25          
2016-03-15 06   11.2    86.6    1004         25          
2016-03-15 12   11.2    86.3    1000         30          
2016-03-15 18   11.1    85.8     993    1    40          
2016-03-16 00   11.0    85.4     993    2    50          
2016-03-16 06   10.8    84.9     982    2    55          
2016-03-16 12   10.7    84.7     967    3    75          
2016-03-16 18   10.6    84.4     956    4    90          
2016-03-17 00   10.5    84.2     952    4    95          
2016-03-17 06   10.5    84.1     929    5   125          
2016-03-17 12   10.5    84.0     933    5   120          
2016-03-17 18   10.4    83.9     937    5   115          
2016-03-18 00   10.1    84.2     944    4   105          
2016-03-18 06   10.1    84.8     959    3    85          
2016-03-18 12   10.1    85.3     970    3    70          
2016-03-18 18   10.2    85.9     978    2    60          
2016-03-19 00   10.4    86.5     974    3    65          
2016-03-19 06   10.5    86.9     970    3    70          
2016-03-19 12   10.6    87.2     967    3    75          
2016-03-19 18   10.7    87.3     967    3    75          
2016-03-20 00   10.8    87.4     970    3    70          
2016-03-20 06   11.0    87.5     970    3    70          
2016-03-20 12   11.3    87.4     974    3    65          
2016-03-20 18   11.4    87.3     978    2    60          
2016-03-21 00   11.5    87.1     978    2    60          
2016-03-21 06   11.5    86.9     982    2    55          
2016-03-21 12   11.4    86.7     989    1    45          
2016-03-21 18   11.3    86.5     996    1    35          
2016-03-22 00   11.2    86.3     996    1    35          
2016-03-22 06   11.1    86.2    1000         30          
2016-03-22 12   11.1    85.6    1000         30          
2016-03-22 18   11.2    84.6    1005         25          
2016-03-23 00   11.1    83.9    1004         25          
2016-03-23 06   11.0    83.4    1007         20          
2016-03-23 12   10.7    83.1    1010         15          
2016-03-23 18   10.5    83.3    1010         15          
2016-03-24 00   10.4    83.3    1010         15          
Winds are 10-min average.

Tropical cyclone tracks developed by Michael Bath using operational warnings and advisories and Google Maps.


[Australian Severe Weather index] [Copyright Notice] [Email Contacts] [Search This Site] [Privacy Policy]
Document: tropical_cyclone_emeraude.htm Updated: 2 May 2017